Main page
METAR-TAF:

METAR-TAF

Airports :

Plovdiv Airport

Plovdiv, Bulgaria

latitude: 42-08N, longitude: 024-45E, elevation: 179 m

Current weather observation

The report was made 36 minutes ago, at 18:00 UTC
Wind 8 kt from the South/Southeast
Temperature 8°C
Humidity 61%
Pressure 1030 hPa
Visibility 10 km or more

METAR: LBPD 251800Z AUTO 16008KT 9999 NCD 08/01 Q1030 NOSIG

Time: 21:36 (18:36 UTC)

Forecast

The report was made 1 hour and 36 minutes ago, at 17:00 UTC
Forecast valid from 25 at 18 UTC to 26 at 18 UTC
Wind 4 kt from variable directions
Visibility 10 km or more
no clouds below 1500 m and no cumulonimbus
Temporary
from 26 at 01 UTC to 26 at 06 UTC
Visibility: 3000 m
mist
Becoming
from 26 at 06 UTC to 26 at 08 UTC
Wind 10 kt from the East
Scattered clouds at a height of 4000 ft

TAF: LBPD 251700Z 2518/2618 VRB04KT CAVOK TEMPO 2601/2606 3000 BR BECMG 2606/2608 09010KT SCT040

Weather observations and forecasts of more than 4000 airports (METAR and TAF reports).

The available stations are represented by yellow and red dots on the map.

Hover mouse over dot to see the name of the station.

Then click to see weather observations and forecasts.

To change the map : click on the green buttons with a black cross to zoom in, on the green button with a dash to zoom out, or on the green arrows for adjacent maps.


METAR-TAF: